Time;durP1;ratioP1;P1;durP2;ratioP2;P2;SDS_P1;SDS_P2;PMS_P1;PMS_P2;Temp;Humidity;BMP_temperature;BMP_pressure;BME280_temperature;BME280_humidity;BME280_pressure;Samples;Min_cycle;Max_cycle;Signal;HPM_P1;HPM_P2
2022/01/03 00:00:19;;;;;;;11.55;3.50;;;8.60;99.90;;;;;;5028416;28;20029;-59
2022/01/03 00:02:46;;;;;;;7.68;2.83;;;8.60;99.90;;;;;;5027384;28;20236;-59
2022/01/03 00:05:11;;;;;;;7.88;4.38;;;8.60;99.90;;;;;;5027367;28;20662;-59
2022/01/03 00:07:46;;;;;;;5.78;4.07;;;8.60;99.90;;;;;;5027277;28;20195;-59
2022/01/03 00:10:15;;;;;;;9.38;5.20;;;8.50;99.90;;;;;;5016364;28;20480;-59
2022/01/03 00:12:42;;;;;;;8.27;4.03;;;8.60;99.90;;;;;;5025157;28;20042;-60
2022/01/03 00:15:11;;;;;;;9.40;5.25;;;8.60;99.90;;;;;;5020765;28;20113;-59
2022/01/03 00:17:37;;;;;;;9.50;6.18;;;8.60;99.90;;;;;;5021737;28;20068;-59
2022/01/03 00:20:04;;;;;;;7.25;5.05;;;8.60;99.90;;;;;;5021134;28;20030;-59
2022/01/03 00:22:40;;;;;;;11.75;6.60;;;8.60;99.90;;;;;;5020689;28;20035;-59
2022/01/03 00:25:15;;;;;;;9.90;6.10;;;8.60;99.90;;;;;;5001189;28;20565;-59
2022/01/03 00:27:54;;;;;;;9.30;6.65;;;8.60;99.90;;;;;;5019587;28;20039;-60
2022/01/03 00:30:21;;;;;;;14.02;7.57;;;8.60;99.90;;;;;;5020395;28;20029;-59
2022/01/03 00:32:49;;;;;;;12.20;6.55;;;8.60;99.90;;;;;;5002878;28;20030;-60
2022/01/03 00:35:17;;;;;;;12.43;6.28;;;8.60;99.90;;;;;;5019830;28;20080;-57
2022/01/03 00:37:45;;;;;;;11.27;7.40;;;8.60;99.90;;;;;;5019952;28;20053;-60
2022/01/03 00:40:15;;;;;;;9.60;6.35;;;8.60;99.90;;;;;;5003496;28;20475;-59
2022/01/03 00:42:41;;;;;;;12.73;6.40;;;8.60;99.90;;;;;;5024232;28;20025;-59
2022/01/03 00:45:07;;;;;;;10.10;6.30;;;8.60;99.90;;;;;;5023486;28;20036;-60
2022/01/03 00:47:34;;;;;;;7.85;4.95;;;8.50;99.90;;;;;;5022683;28;20492;-59
2022/01/03 00:50:12;;;;;;;7.47;4.75;;;8.50;99.90;;;;;;5020395;28;20060;-59
2022/01/03 00:52:38;;;;;;;6.40;4.65;;;8.60;99.90;;;;;;5002288;28;20069;-60
2022/01/03 00:55:06;;;;;;;7.00;4.70;;;8.60;99.90;;;;;;5022541;28;20033;-60
2022/01/03 00:57:47;;;;;;;6.07;4.10;;;8.60;99.90;;;;;;5021293;28;20025;-60
2022/01/03 01:00:13;;;;;;;7.65;3.30;;;8.50;99.90;;;;;;5002847;28;20030;-60
2022/01/03 01:02:50;;;;;;;7.57;3.08;;;8.50;99.90;;;;;;5022384;28;20048;-59
2022/01/03 01:05:17;;;;;;;9.05;3.38;;;8.60;99.90;;;;;;5018562;28;20111;-60
2022/01/03 01:07:46;;;;;;;6.30;2.85;;;8.50;99.90;;;;;;5020266;28;20029;-60
2022/01/03 01:10:12;;;;;;;8.75;2.90;;;8.50;99.90;;;;;;5025592;28;20088;-58
2022/01/03 01:12:41;;;;;;;6.32;2.10;;;8.50;99.90;;;;;;5021158;28;20033;-60
2022/01/03 01:15:07;;;;;;;3.85;2.00;;;8.50;99.90;;;;;;5005187;28;20096;-59
2022/01/03 01:17:34;;;;;;;6.22;2.60;;;8.50;99.90;;;;;;5022214;28;20029;-60
2022/01/03 01:20:00;;;;;;;5.97;2.80;;;8.50;99.90;;;;;;5015068;28;20585;-60
2022/01/03 01:22:26;;;;;;;3.50;2.88;;;8.50;99.90;;;;;;5024402;28;20030;-60
2022/01/03 01:25:22;;;;;;;7.50;3.85;;;8.40;99.90;;;;;;5025057;28;20491;-59
2022/01/03 01:27:52;;;;;;;5.97;3.58;;;8.40;99.90;;;;;;5025258;28;20112;-59
2022/01/03 01:30:21;;;;;;;6.95;3.10;;;8.40;99.90;;;;;;5016379;28;20041;-59
2022/01/03 01:33:11;;;;;;;2.88;2.30;;;8.40;99.90;;;;;;5019767;28;20112;-60
2022/01/03 01:35:36;;;;;;;4.45;2.17;;;8.40;99.90;;;;;;5019610;28;20034;-60
2022/01/03 01:38:03;;;;;;;3.80;2.08;;;8.40;99.90;;;;;;5022716;28;20103;-60
2022/01/03 01:40:29;;;;;;;2.83;1.67;;;8.40;99.90;;;;;;5027475;28;20040;-60
2022/01/03 01:42:56;;;;;;;3.78;1.42;;;8.30;99.90;;;;;;5020168;28;20404;-60
2022/01/03 01:45:26;;;;;;;3.17;1.27;;;8.30;99.90;;;;;;5019426;28;20053;-60
2022/01/03 01:47:57;;;;;;;2.28;1.00;;;8.30;99.90;;;;;;5024575;28;20068;-60
2022/01/03 01:50:26;;;;;;;1.63;1.00;;;8.30;99.90;;;;;;5020963;28;20544;-60
2022/01/03 01:52:55;;;;;;;2.72;1.30;;;8.20;99.90;;;;;;5024141;28;20036;-60
2022/01/03 01:55:20;;;;;;;3.47;1.40;;;8.20;99.90;;;;;;5026294;28;20029;-60
2022/01/03 01:58:03;;;;;;;3.78;1.30;;;8.20;99.90;;;;;;5016019;28;20034;-60
2022/01/03 02:00:32;;;;;;;2.97;1.30;;;8.20;99.90;;;;;;4999971;28;20033;-60
2022/01/03 02:03:15;;;;;;;1.20;1.10;;;8.20;99.90;;;;;;5019410;28;20022;-60
2022/01/03 02:05:54;;;;;;;1.60;1.23;;;8.10;99.90;;;;;;5018451;28;20029;-60
2022/01/03 02:08:28;;;;;;;2.53;1.13;;;8.10;99.90;;;;;;5001619;28;20022;-62
2022/01/03 02:11:02;;;;;;;2.03;1.50;;;8.10;99.90;;;;;;5021100;28;20479;-60
2022/01/03 02:13:28;;;;;;;2.05;1.70;;;8.10;99.90;;;;;;5020281;28;20041;-60
2022/01/03 02:16:03;;;;;;;2.75;1.35;;;8.10;99.90;;;;;;5001277;28;20029;-59
2022/01/03 02:18:30;;;;;;;1.65;1.15;;;8.10;99.90;;;;;;5020623;28;20506;-60
2022/01/03 02:20:56;;;;;;;1.58;1.13;;;8.00;99.90;;;;;;5021337;28;20097;-60
2022/01/03 02:23:22;;;;;;;1.83;1.05;;;8.00;99.90;;;;;;5017857;28;20040;-59
2022/01/03 02:25:48;;;;;;;1.75;1.20;;;8.00;99.90;;;;;;5023551;28;20060;-60
2022/01/03 02:28:16;;;;;;;2.47;1.15;;;7.90;99.90;;;;;;5024421;28;20036;-61
2022/01/03 02:30:42;;;;;;;2.45;1.10;;;7.90;99.90;;;;;;5029972;28;20551;-60
2022/01/03 02:33:07;;;;;;;4.38;1.63;;;7.90;99.90;;;;;;5025803;28;20530;-60
2022/01/03 02:35:38;;;;;;;1.77;0.73;;;7.90;99.90;;;;;;5026194;28;20034;-60
2022/01/03 02:38:04;;;;;;;3.03;0.93;;;7.80;99.90;;;;;;5023212;28;20053;-60
2022/01/03 02:40:30;;;;;;;4.30;1.02;;;7.70;99.90;;;;;;5022808;28;20039;-60
2022/01/03 02:42:55;;;;;;;1.65;0.95;;;7.70;99.90;;;;;;5026091;28;20029;-60
2022/01/03 02:45:23;;;;;;;2.65;0.80;;;7.70;99.90;;;;;;5004455;28;20033;-60
2022/01/03 02:47:56;;;;;;;2.53;1.23;;;7.70;99.90;;;;;;5028404;28;20041;-60
2022/01/03 02:50:24;;;;;;;0.75;0.57;;;7.70;99.90;;;;;;5027940;28;20063;-60
2022/01/03 02:52:50;;;;;;;4.55;1.13;;;7.70;99.90;;;;;;5027144;28;20030;-60
2022/01/03 02:55:17;;;;;;;2.45;0.60;;;7.60;99.90;;;;;;5023639;28;20037;-61
2022/01/03 02:57:49;;;;;;;1.40;0.50;;;7.60;99.90;;;;;;5024692;28;20395;-61
2022/01/03 03:00:18;;;;;;;4.32;0.80;;;7.60;99.90;;;;;;5025969;28;20037;-61
2022/01/03 03:02:44;;;;;;;5.55;1.10;;;7.60;99.90;;;;;;5025590;28;20512;-61
2022/01/03 03:05:11;;;;;;;1.73;0.60;;;7.60;99.90;;;;;;5026787;28;20087;-60
2022/01/03 03:07:37;;;;;;;6.05;0.70;;;7.60;99.90;;;;;;5027823;28;20049;-61
2022/01/03 03:10:14;;;;;;;2.28;0.70;;;7.60;99.90;;;;;;5025082;28;20094;-61
2022/01/03 03:12:40;;;;;;;2.53;0.90;;;7.60;99.90;;;;;;5027821;28;20025;-61
2022/01/03 03:15:08;;;;;;;5.45;1.38;;;7.50;99.90;;;;;;5027158;28;20026;-61
2022/01/03 03:17:35;;;;;;;2.97;0.80;;;7.50;99.90;;;;;;5027652;28;20388;-60
2022/01/03 03:20:05;;;;;;;4.68;1.10;;;7.50;99.90;;;;;;5023608;28;20030;-60
2022/01/03 03:22:32;;;;;;;4.30;1.35;;;7.50;99.90;;;;;;5026950;28;20025;-61
2022/01/03 03:25:00;;;;;;;2.75;0.77;;;7.50;99.90;;;;;;5013042;28;20022;-60
2022/01/03 03:27:26;;;;;;;3.05;1.25;;;7.50;99.90;;;;;;5020613;28;20064;-59
2022/01/03 03:29:52;;;;;;;4.25;1.45;;;7.50;99.90;;;;;;5003052;28;20056;-61
2022/01/03 03:32:18;;;;;;;6.20;1.08;;;7.50;99.90;;;;;;5002987;28;20029;-58
2022/01/03 03:34:45;;;;;;;6.22;1.33;;;7.50;99.90;;;;;;5024717;28;20026;-60
2022/01/03 03:37:11;;;;;;;4.72;1.25;;;7.50;99.90;;;;;;5023625;28;20504;-60
2022/01/03 03:39:39;;;;;;;6.75;1.60;;;7.50;99.90;;;;;;5027180;28;20450;-60
2022/01/03 03:42:05;;;;;;;7.35;1.67;;;7.50;99.90;;;;;;5026349;28;20026;-60
2022/01/03 03:44:31;;;;;;;9.48;2.08;;;7.50;99.90;;;;;;5026748;28;20101;-60
2022/01/03 03:46:57;;;;;;;2.67;1.60;;;7.50;99.90;;;;;;5027916;28;20065;-60
2022/01/03 03:49:22;;;;;;;8.82;2.42;;;7.50;99.90;;;;;;5020108;28;20456;-60
2022/01/03 03:51:48;;;;;;;5.60;2.13;;;7.50;99.90;;;;;;5022789;28;20021;-59
2022/01/03 03:54:13;;;;;;;10.75;1.98;;;7.50;99.90;;;;;;5021683;28;20033;-60
2022/01/03 03:56:39;;;;;;;9.93;2.28;;;7.50;99.90;;;;;;5020514;28;20082;-60
2022/01/03 03:59:05;;;;;;;12.57;2.53;;;7.60;99.90;;;;;;5020646;28;20480;-60
2022/01/03 04:01:30;;;;;;;8.77;2.50;;;7.50;99.90;;;;;;5013363;28;20068;-61
2022/01/03 04:03:56;;;;;;;9.40;2.70;;;7.50;99.90;;;;;;5004170;28;20404;-60
2022/01/03 04:06:21;;;;;;;8.85;2.63;;;7.60;99.90;;;;;;5024087;28;20034;-59
2022/01/03 04:08:47;;;;;;;5.28;2.30;;;7.60;99.90;;;;;;5023413;28;20017;-60
2022/01/03 04:11:13;;;;;;;7.38;2.10;;;7.60;99.90;;;;;;5003615;28;20076;-60
2022/01/03 04:13:39;;;;;;;8.48;2.85;;;7.60;99.90;;;;;;5026559;28;20033;-61
2022/01/03 04:16:06;;;;;;;6.47;2.40;;;7.60;99.90;;;;;;5004948;28;20022;-60
2022/01/03 04:18:32;;;;;;;7.40;2.78;;;7.60;99.90;;;;;;5019286;28;20025;-60
2022/01/03 04:20:58;;;;;;;5.88;2.50;;;7.60;99.90;;;;;;5020585;28;20515;-60
2022/01/03 04:23:23;;;;;;;6.15;2.25;;;7.60;99.90;;;;;;5019274;28;20084;-59
2022/01/03 04:25:51;;;;;;;10.15;2.90;;;7.70;99.90;;;;;;5002596;28;20032;-61
2022/01/03 04:28:18;;;;;;;9.68;3.78;;;7.70;99.90;;;;;;5020020;28;20380;-60
2022/01/03 04:30:43;;;;;;;12.77;4.10;;;7.70;99.90;;;;;;5027824;28;20021;-60
2022/01/03 04:33:09;;;;;;;5.25;3.40;;;7.70;99.90;;;;;;5020198;28;20033;-59
2022/01/03 04:35:36;;;;;;;15.07;4.22;;;7.70;99.90;;;;;;5021164;28;20504;-60
2022/01/03 04:38:01;;;;;;;7.63;3.42;;;7.80;99.90;;;;;;5019709;28;20025;-59
2022/01/03 04:40:27;;;;;;;11.20;4.53;;;7.80;99.90;;;;;;5023850;28;20028;-60
2022/01/03 04:42:53;;;;;;;6.22;4.05;;;7.80;99.90;;;;;;5020273;28;20706;-61
2022/01/03 04:45:18;;;;;;;10.68;4.22;;;7.80;99.90;;;;;;5008645;28;20037;-61
2022/01/03 04:47:44;;;;;;;8.73;4.35;;;7.80;99.90;;;;;;5024465;28;20102;-61
2022/01/03 04:50:09;;;;;;;9.10;4.05;;;7.80;99.90;;;;;;5026387;28;20112;-60
2022/01/03 04:52:35;;;;;;;14.45;4.47;;;7.80;99.90;;;;;;5012946;28;20033;-60
2022/01/03 04:55:01;;;;;;;6.57;3.25;;;7.80;99.90;;;;;;5023212;28;20177;-61
2022/01/03 04:57:27;;;;;;;9.93;3.95;;;7.80;99.90;;;;;;5009358;28;20021;-61
2022/01/03 04:59:53;;;;;;;18.17;5.03;;;7.80;99.90;;;;;;5016937;28;20029;-60
2022/01/03 05:02:19;;;;;;;14.85;3.95;;;7.80;99.90;;;;;;5018995;28;20030;-61
2022/01/03 05:04:44;;;;;;;13.85;4.80;;;7.80;99.90;;;;;;5024104;28;20057;-60
2022/01/03 05:07:10;;;;;;;17.15;4.45;;;7.80;99.90;;;;;;5027286;28;20068;-59
2022/01/03 05:09:36;;;;;;;15.23;4.97;;;7.80;99.90;;;;;;5022442;28;20021;-61
2022/01/03 05:12:02;;;;;;;14.25;4.47;;;7.80;99.90;;;;;;5020064;28;20443;-61
2022/01/03 05:14:28;;;;;;;11.75;3.83;;;7.90;99.90;;;;;;5017365;28;20056;-60
2022/01/03 05:16:53;;;;;;;13.30;4.70;;;7.90;99.90;;;;;;5019738;28;20472;-59
2022/01/03 05:19:19;;;;;;;16.13;4.32;;;7.90;99.90;;;;;;5022288;28;20077;-61
2022/01/03 05:21:46;;;;;;;12.05;4.07;;;7.90;99.90;;;;;;5022510;28;20376;-61
2022/01/03 05:24:13;;;;;;;15.75;4.40;;;7.90;99.90;;;;;;5023971;28;20025;-60
2022/01/03 05:26:39;;;;;;;8.93;3.90;;;7.90;99.90;;;;;;5001333;28;20037;-61
2022/01/03 05:29:04;;;;;;;10.57;3.50;;;7.90;99.90;;;;;;5022494;28;20087;-61
2022/01/03 05:31:30;;;;;;;10.85;3.55;;;7.90;99.90;;;;;;5020890;28;20029;-61
2022/01/03 05:33:56;;;;;;;15.00;3.83;;;7.90;99.90;;;;;;5019678;28;20037;-60
2022/01/03 05:36:22;;;;;;;11.52;3.45;;;7.90;99.90;;;;;;5019692;28;20507;-61
2022/01/03 05:38:47;;;;;;;15.35;3.20;;;8.00;99.90;;;;;;5007360;28;20034;-61
2022/01/03 05:41:13;;;;;;;14.77;3.45;;;8.00;99.90;;;;;;5022867;28;20048;-60
2022/01/03 05:43:39;;;;;;;15.05;3.17;;;7.90;99.90;;;;;;4998559;28;20041;-61
2022/01/03 05:46:05;;;;;;;20.25;4.95;;;7.90;99.90;;;;;;5017063;28;20029;-60
2022/01/03 05:48:31;;;;;;;11.25;3.50;;;8.00;99.90;;;;;;5021591;28;20586;-61
2022/01/03 05:50:57;;;;;;;9.23;3.28;;;8.00;99.90;;;;;;5008283;28;20065;-61
2022/01/03 05:53:22;;;;;;;22.92;4.57;;;8.00;99.90;;;;;;5025027;28;20468;-60
2022/01/03 05:55:49;;;;;;;15.93;3.95;;;8.00;99.90;;;;;;5015359;28;20026;-61
2022/01/03 05:58:15;;;;;;;11.48;3.75;;;8.00;99.90;;;;;;5000002;28;20032;-61
2022/01/03 06:00:42;;;;;;;9.63;3.25;;;8.00;99.90;;;;;;5025200;28;20488;-61
2022/01/03 06:03:08;;;;;;;14.35;3.33;;;7.90;99.90;;;;;;5028729;28;20025;-62
2022/01/03 06:08:02;;;;;;;16.15;3.92;;;7.90;99.90;;;;;;5029956;28;20103;-63
2022/01/03 06:10:28;;;;;;;13.07;3.78;;;8.00;99.90;;;;;;5029456;28;20026;-60
2022/01/03 06:12:54;;;;;;;8.98;2.85;;;8.00;99.90;;;;;;4998115;28;20447;-60
2022/01/03 06:15:24;;;;;;;21.42;3.70;;;8.00;99.90;;;;;;5022386;28;20034;-60
2022/01/03 06:17:51;;;;;;;14.05;3.70;;;8.00;99.90;;;;;;4998215;28;20029;-61
2022/01/03 06:20:17;;;;;;;8.95;3.45;;;8.00;99.90;;;;;;5017024;28;20503;-58
2022/01/03 06:22:43;;;;;;;18.88;3.90;;;8.00;99.90;;;;;;4995400;28;20065;-60
2022/01/03 06:25:11;;;;;;;9.02;2.40;;;8.00;99.90;;;;;;5015982;28;20030;-60
2022/01/03 06:27:38;;;;;;;19.77;3.17;;;8.00;99.90;;;;;;5022222;28;20399;-60
2022/01/03 06:30:05;;;;;;;19.20;4.20;;;8.00;99.90;;;;;;5030219;28;20439;-60
2022/01/03 06:32:31;;;;;;;12.50;3.58;;;8.00;99.90;;;;;;5029602;28;20034;-59
2022/01/03 06:34:57;;;;;;;17.67;3.53;;;8.00;99.90;;;;;;5021451;28;20097;-59
2022/01/03 06:37:22;;;;;;;11.35;3.28;;;8.00;99.90;;;;;;5001647;28;20113;-59
2022/01/03 06:39:48;;;;;;;11.77;3.05;;;8.00;99.90;;;;;;5028557;28;20076;-59
2022/01/03 06:42:14;;;;;;;17.38;3.80;;;8.00;99.90;;;;;;5027850;28;20076;-59
2022/01/03 06:44:39;;;;;;;24.13;3.60;;;8.00;99.90;;;;;;5008358;28;20136;-60
2022/01/03 06:47:05;;;;;;;14.77;3.70;;;8.00;99.90;;;;;;5021833;28;20100;-60
2022/01/03 06:49:30;;;;;;;20.65;3.72;;;8.00;99.90;;;;;;5024723;28;20025;-60
2022/01/03 06:51:56;;;;;;;17.33;3.42;;;8.00;99.90;;;;;;5023352;28;20040;-59
2022/01/03 06:54:22;;;;;;;13.70;3.90;;;8.00;99.90;;;;;;5024566;28;20044;-60
2022/01/03 06:56:47;;;;;;;17.10;3.85;;;8.00;99.90;;;;;;5024656;28;20029;-58
2022/01/03 06:59:13;;;;;;;16.70;4.18;;;8.00;99.90;;;;;;5023029;28;20030;-59
2022/01/03 07:01:39;;;;;;;12.45;2.80;;;8.10;99.90;;;;;;5026926;28;20025;-60
2022/01/03 07:04:04;;;;;;;19.15;3.80;;;8.10;99.90;;;;;;5004375;28;20107;-60
2022/01/03 07:06:31;;;;;;;20.20;4.68;;;8.10;99.90;;;;;;5022636;28;20034;-60
2022/01/03 07:08:57;;;;;;;16.60;3.58;;;8.10;99.90;;;;;;5004096;28;20037;-60
2022/01/03 07:11:23;;;;;;;27.20;4.75;;;8.10;99.90;;;;;;5023761;28;20156;-59
2022/01/03 07:13:52;;;;;;;20.30;3.63;;;8.10;99.90;;;;;;5019965;28;20030;-59
2022/01/03 07:19:06;;;;;;;18.25;3.25;;;8.10;99.90;;;;;;5021444;28;20032;-59
2022/01/03 07:21:33;;;;;;;26.33;7.57;;;8.10;99.90;;;;;;5023045;28;20074;-59
2022/01/03 07:23:59;;;;;;;14.05;3.88;;;8.10;99.90;;;;;;5022245;28;20040;-59
2022/01/03 07:26:26;;;;;;;17.25;4.38;;;8.10;99.90;;;;;;5022098;28;20033;-59
2022/01/03 07:28:53;;;;;;;15.70;4.43;;;8.10;99.90;;;;;;5021761;28;20055;-59
2022/01/03 07:31:18;;;;;;;23.17;3.75;;;8.10;99.90;;;;;;5021339;28;20377;-59
2022/01/03 07:33:44;;;;;;;12.65;2.90;;;8.10;99.90;;;;;;5006360;28;20075;-59
2022/01/03 07:36:10;;;;;;;18.30;3.55;;;8.10;99.90;;;;;;5028689;28;20039;-60
2022/01/03 07:38:36;;;;;;;15.75;3.65;;;8.10;99.90;;;;;;5026824;28;20404;-59
2022/01/03 07:41:03;;;;;;;17.70;4.47;;;8.10;99.90;;;;;;5027634;28;20021;-60
2022/01/03 07:43:29;;;;;;;24.77;5.30;;;8.10;99.90;;;;;;5028065;28;20767;-60
2022/01/03 07:45:55;;;;;;;12.93;3.17;;;8.10;99.90;;;;;;5027519;28;20025;-61
2022/01/03 07:48:20;;;;;;;15.23;3.10;;;8.10;99.90;;;;;;5002359;28;20502;-61
2022/01/03 07:50:46;;;;;;;14.23;3.47;;;8.00;99.90;;;;;;5016959;28;20037;-60
2022/01/03 07:53:11;;;;;;;20.33;3.67;;;8.00;99.90;;;;;;5020812;28;20022;-60
2022/01/03 07:55:37;;;;;;;21.23;4.60;;;8.00;99.90;;;;;;5004519;28;20049;-60
2022/01/03 07:58:03;;;;;;;18.80;4.63;;;8.00;99.90;;;;;;5020037;28;20408;-61
2022/01/03 08:00:29;;;;;;;15.15;3.08;;;8.00;99.90;;;;;;5020880;28;20049;-60
2022/01/03 08:02:55;;;;;;;16.08;4.13;;;8.00;99.90;;;;;;5020796;28;20014;-60
2022/01/03 08:05:21;;;;;;;10.82;3.30;;;8.00;99.90;;;;;;5021973;28;20025;-60
2022/01/03 08:07:46;;;;;;;15.35;3.05;;;8.00;99.90;;;;;;5021099;28;20021;-60
2022/01/03 08:10:14;;;;;;;15.15;3.63;;;8.00;99.90;;;;;;5019471;28;20071;-60
2022/01/03 08:12:40;;;;;;;15.43;3.85;;;8.00;99.90;;;;;;5019975;28;20022;-60
2022/01/03 08:15:07;;;;;;;13.45;3.28;;;7.90;99.90;;;;;;5020739;28;20112;-60
2022/01/03 08:17:34;;;;;;;20.70;4.28;;;8.00;99.90;;;;;;5023188;28;20021;-61
2022/01/03 08:20:00;;;;;;;21.85;3.25;;;8.00;99.90;;;;;;5024060;28;20025;-60
2022/01/03 08:22:26;;;;;;;18.40;4.18;;;8.00;99.90;;;;;;5019593;28;20018;-61
2022/01/03 08:24:52;;;;;;;17.05;3.60;;;8.00;99.90;;;;;;5015321;28;20092;-61
2022/01/03 08:27:17;;;;;;;16.50;3.25;;;8.00;99.90;;;;;;5018820;28;20069;-61
2022/01/03 08:29:43;;;;;;;16.40;3.80;;;8.00;99.90;;;;;;5001313;28;20030;-59
2022/01/03 08:32:10;;;;;;;24.98;4.13;;;8.00;99.90;;;;;;5019510;28;20045;-60
2022/01/03 08:34:36;;;;;;;20.77;3.92;;;8.00;99.90;;;;;;5020173;28;20030;-60
2022/01/03 08:37:02;;;;;;;14.88;3.78;;;8.00;99.90;;;;;;5018356;28;20070;-59
2022/01/03 08:39:28;;;;;;;23.42;4.55;;;8.00;99.90;;;;;;5018356;28;20075;-60
2022/01/03 08:41:53;;;;;;;10.30;3.22;;;8.00;99.90;;;;;;5020124;28;20021;-60
2022/01/03 08:44:19;;;;;;;19.85;3.97;;;8.00;99.90;;;;;;5019055;28;20041;-60
2022/01/03 08:46:46;;;;;;;17.70;4.32;;;8.00;99.90;;;;;;5038125;23;20076;-53
2022/01/03 08:49:13;;;;;;;18.15;3.65;;;8.00;99.90;;;;;;5056738;28;20407;-55
2022/01/03 08:51:38;;;;;;;19.75;3.95;;;8.00;99.90;;;;;;5058452;28;20016;-54
2022/01/03 08:54:04;;;;;;;15.27;3.33;;;8.00;99.90;;;;;;5057077;28;20028;-55
2022/01/03 08:56:30;;;;;;;10.70;2.88;;;8.00;99.90;;;;;;5058368;28;20600;-55
2022/01/03 08:58:55;;;;;;;23.25;4.57;;;8.00;99.90;;;;;;5056408;28;20355;-55
2022/01/03 09:01:21;;;;;;;12.05;3.58;;;8.10;99.90;;;;;;5058595;28;20070;-54
2022/01/03 09:03:50;;;;;;;20.92;4.75;;;8.00;99.90;;;;;;5058364;28;20024;-56
2022/01/03 09:06:17;;;;;;;15.32;3.70;;;8.10;99.90;;;;;;5058302;28;20490;-55
2022/01/03 09:08:42;;;;;;;12.02;3.95;;;8.10;99.90;;;;;;5056634;28;20483;-53
2022/01/03 09:11:08;;;;;;;10.82;2.65;;;8.10;99.90;;;;;;5058732;28;20070;-56
2022/01/03 09:13:35;;;;;;;18.17;4.10;;;8.10;99.90;;;;;;5057657;28;20032;-54
2022/01/03 09:16:04;;;;;;;24.42;4.68;;;8.10;99.90;;;;;;5056656;28;20017;-52
2022/01/03 09:18:31;;;;;;;20.45;3.83;;;8.10;99.90;;;;;;5057919;28;20307;-55
2022/01/03 09:20:56;;;;;;;15.43;4.93;;;8.10;99.90;;;;;;5057973;28;20552;-52
2022/01/03 09:23:28;;;;;;;20.55;4.07;;;8.10;99.90;;;;;;5058701;28;20037;-54
2022/01/03 09:28:56;;;;;;;15.68;3.85;;;8.20;99.90;;;;;;5058220;28;20030;-53
2022/01/03 09:31:35;;;;;;;15.45;3.25;;;8.10;99.90;;;;;;5057753;28;20033;-54
2022/01/03 09:34:02;;;;;;;17.75;3.80;;;8.20;99.90;;;;;;5059017;28;20029;-56
2022/01/03 09:36:29;;;;;;;15.88;3.45;;;8.10;99.90;;;;;;5056921;28;20390;-56
2022/01/03 09:38:55;;;;;;;16.13;4.07;;;8.10;99.90;;;;;;5061398;28;20108;-56
2022/01/03 09:41:23;;;;;;;10.52;2.92;;;8.10;99.90;;;;;;5062981;28;20043;-54
2022/01/03 09:43:54;;;;;;;13.82;3.42;;;8.10;99.90;;;;;;5061594;28;20050;-55
2022/01/03 09:46:35;;;;;;;13.70;2.55;;;8.10;99.90;;;;;;5062582;28;20028;-58
2022/01/03 09:49:01;;;;;;;12.00;2.95;;;8.00;99.90;;;;;;5061784;28;20057;-54
2022/01/03 09:51:29;;;;;;;13.30;4.03;;;8.10;99.90;;;;;;5062262;28;20048;-53
2022/01/03 09:53:59;;;;;;;19.63;3.83;;;8.10;99.90;;;;;;5059436;28;20534;-54
2022/01/03 09:56:27;;;;;;;16.50;3.88;;;8.10;99.90;;;;;;5061325;28;20025;-55
2022/01/03 09:58:53;;;;;;;14.95;3.42;;;8.00;99.90;;;;;;5059446;28;20025;-57
2022/01/03 10:01:19;;;;;;;11.23;3.25;;;8.00;99.90;;;;;;5062267;28;20017;-55
2022/01/03 10:03:47;;;;;;;17.27;4.25;;;8.00;99.90;;;;;;5060942;28;20066;-56
2022/01/03 10:06:17;;;;;;;15.27;3.47;;;8.00;99.90;;;;;;5061601;28;20017;-57
2022/01/03 10:08:43;;;;;;;18.25;4.30;;;8.00;99.90;;;;;;5060333;28;20057;-55
2022/01/03 10:11:09;;;;;;;16.25;3.90;;;8.00;99.90;;;;;;5060873;28;20020;-55
2022/01/03 10:13:35;;;;;;;17.85;4.22;;;8.00;99.90;;;;;;5060717;28;20025;-55
2022/01/03 10:16:00;;;;;;;18.58;4.97;;;8.00;99.90;;;;;;5061193;28;20483;-56
2022/01/03 10:18:26;;;;;;;18.60;4.57;;;8.10;99.90;;;;;;5061497;28;20024;-54
2022/01/03 10:20:54;;;;;;;14.52;3.75;;;8.10;99.90;;;;;;5061198;28;20025;-55
2022/01/03 10:23:20;;;;;;;13.50;3.40;;;8.10;99.90;;;;;;5061817;28;20024;-55
2022/01/03 10:25:46;;;;;;;15.95;3.72;;;8.20;99.90;;;;;;5060843;28;20112;-56
2022/01/03 10:28:25;;;;;;;22.10;3.90;;;8.20;99.90;;;;;;5060263;28;20031;-54
2022/01/03 10:30:52;;;;;;;25.02;4.05;;;8.30;99.90;;;;;;5060201;28;20024;-55
2022/01/03 10:33:20;;;;;;;22.17;5.40;;;8.30;99.90;;;;;;5061405;28;20070;-58
2022/01/03 10:35:51;;;;;;;14.18;4.47;;;8.40;99.90;;;;;;5060352;28;20021;-54
2022/01/03 10:38:33;;;;;;;24.52;5.68;;;8.40;99.90;;;;;;5061136;28;20017;-56
2022/01/03 10:41:28;;;;;;;26.25;5.18;;;8.50;99.90;;;;;;5058562;28;20020;-55
2022/01/03 10:43:56;;;;;;;18.38;3.25;;;8.50;99.90;;;;;;5041341;28;20108;-55
2022/01/03 10:46:27;;;;;;;23.08;4.30;;;8.50;99.90;;;;;;5061472;28;20398;-54
2022/01/03 10:49:04;;;;;;;14.35;4.65;;;8.50;99.90;;;;;;5059711;28;20602;-56
2022/01/03 10:51:30;;;;;;;17.30;4.05;;;8.60;99.90;;;;;;5043053;28;20040;-52
2022/01/03 10:53:56;;;;;;;16.55;4.97;;;8.60;99.90;;;;;;5059846;28;20037;-53
2022/01/03 10:56:28;;;;;;;20.67;4.53;;;8.60;99.90;;;;;;5060972;28;20152;-55
2022/01/03 10:58:58;;;;;;;16.50;3.50;;;8.60;99.90;;;;;;5054487;28;20513;-55
2022/01/03 11:01:26;;;;;;;16.63;4.78;;;8.60;99.90;;;;;;5054151;28;20024;-53
2022/01/03 11:03:53;;;;;;;17.85;3.70;;;8.50;99.90;;;;;;5057848;28;20056;-56
2022/01/03 11:11:36;;;;;;;22.05;4.30;;;8.60;99.90;;;;;;5058941;28;20090;-57
2022/01/03 11:14:02;;;;;;;21.45;4.05;;;8.60;99.90;;;;;;5059300;28;20079;-56
2022/01/03 11:16:36;;;;;;;16.58;4.72;;;8.60;99.90;;;;;;5057838;28;20033;-56
2022/01/03 11:19:03;;;;;;;17.75;3.50;;;8.70;99.90;;;;;;5058736;28;20052;-54
2022/01/03 11:21:30;;;;;;;13.73;3.38;;;8.70;99.90;;;;;;5056394;28;20052;-55
2022/01/03 11:23:58;;;;;;;17.23;3.88;;;8.80;99.90;;;;;;5057994;28;20049;-55
2022/01/03 11:26:25;;;;;;;16.23;4.40;;;8.80;99.90;;;;;;5056147;28;20112;-55
2022/01/03 11:28:51;;;;;;;23.40;4.43;;;8.80;99.90;;;;;;5057361;28;20278;-52
2022/01/03 11:31:19;;;;;;;14.20;4.30;;;8.90;99.90;;;;;;5056976;28;20183;-56
2022/01/03 11:33:46;;;;;;;22.52;5.22;;;8.90;99.90;;;;;;5057049;28;20105;-56
2022/01/03 11:36:12;;;;;;;22.63;3.95;;;8.90;99.90;;;;;;5056894;28;20086;-54
2022/01/03 11:38:40;;;;;;;18.80;4.20;;;9.00;99.90;;;;;;5056049;28;20403;-52
2022/01/03 11:41:09;;;;;;;22.95;4.40;;;9.00;99.90;;;;;;5054458;28;20028;-56
2022/01/03 11:43:37;;;;;;;15.27;3.75;;;9.00;99.90;;;;;;5055895;28;20409;-56
2022/01/03 11:46:04;;;;;;;15.90;3.83;;;9.00;99.90;;;;;;5059298;28;20047;-57
2022/01/03 11:48:29;;;;;;;26.73;4.90;;;9.00;99.90;;;;;;5059626;28;20033;-55
2022/01/03 11:51:05;;;;;;;13.85;4.00;;;9.00;99.90;;;;;;5059222;28;20025;-54
2022/01/03 11:53:34;;;;;;;19.67;3.75;;;9.00;99.90;;;;;;5052026;28;20025;-56
2022/01/03 11:56:05;;;;;;;25.70;4.63;;;9.00;99.90;;;;;;5059128;28;20060;-55
2022/01/03 12:04:36;;;;;;;18.23;5.00;;;9.00;99.90;;;;;;5059141;28;20035;-54
2022/01/03 12:07:13;;;;;;;23.00;6.47;;;8.90;99.90;;;;;;5059412;28;20017;-53
2022/01/03 12:09:43;;;;;;;14.35;4.70;;;8.90;99.90;;;;;;5056769;28;20448;-53
2022/01/03 12:12:27;;;;;;;16.83;4.60;;;8.80;99.90;;;;;;5058600;28;20407;-52
2022/01/03 12:14:53;;;;;;;22.10;5.10;;;8.90;99.90;;;;;;5055963;28;20506;-55
2022/01/03 12:17:18;;;;;;;23.63;6.10;;;8.90;99.90;;;;;;5059161;28;20029;-56
2022/01/03 12:19:46;;;;;;;20.58;5.07;;;8.90;99.90;;;;;;5047152;28;20017;-55
2022/01/03 12:22:17;;;;;;;19.33;4.95;;;8.90;99.90;;;;;;5059549;28;20078;-52
2022/01/03 12:24:46;;;;;;;17.80;4.80;;;8.90;99.90;;;;;;5057173;28;20025;-54
2022/01/03 12:27:15;;;;;;;14.80;4.22;;;8.90;99.90;;;;;;5059135;28;20075;-53
2022/01/03 12:30:01;;;;;;;24.98;4.78;;;8.90;99.90;;;;;;5057664;28;20501;-54
2022/01/03 12:32:35;;;;;;;14.63;3.78;;;8.90;99.90;;;;;;5059129;28;20056;-56
2022/01/03 12:35:07;;;;;;;16.60;4.18;;;9.00;99.90;;;;;;5055940;28;20028;-56
2022/01/03 12:37:42;;;;;;;19.02;3.60;;;8.90;99.90;;;;;;5058488;28;20378;-52
2022/01/03 12:40:18;;;;;;;17.10;3.50;;;9.00;99.90;;;;;;5059224;28;20143;-55
2022/01/03 12:42:53;;;;;;;15.30;4.15;;;9.00;99.90;;;;;;5057831;28;20055;-55
2022/01/03 12:45:33;;;;;;;17.88;3.50;;;9.00;99.90;;;;;;5059186;28;20530;-52
2022/01/03 12:48:11;;;;;;;14.77;2.97;;;9.00;99.90;;;;;;5056935;28;20037;-54
2022/01/03 12:50:51;;;;;;;22.15;5.32;;;8.90;99.90;;;;;;5051451;28;20083;-54
2022/01/03 12:53:23;;;;;;;10.20;2.53;;;8.90;99.90;;;;;;5057929;28;20052;-53
2022/01/03 12:55:50;;;;;;;13.35;3.47;;;8.90;99.90;;;;;;5058863;28;20433;-53
2022/01/03 12:58:18;;;;;;;12.98;3.15;;;8.90;99.90;;;;;;5058101;28;20021;-55
2022/01/03 13:01:03;;;;;;;20.40;3.67;;;8.90;99.90;;;;;;5058527;28;20032;-55
2022/01/03 13:03:39;;;;;;;17.08;3.67;;;8.90;99.90;;;;;;5058259;28;20128;-52
2022/01/03 13:06:14;;;;;;;17.75;2.83;;;8.90;99.90;;;;;;5058196;28;20013;-55
2022/01/03 13:08:59;;;;;;;8.27;2.65;;;8.90;99.90;;;;;;5057963;28;20398;-56
2022/01/03 13:11:37;;;;;;;8.90;4.03;;;8.90;99.90;;;;;;5057628;28;20095;-56
2022/01/03 13:14:22;;;;;;;20.60;4.82;;;8.90;99.90;;;;;;5057328;28;20068;-55